createdAt,value
2018-05-14T00:02:18.353Z,21.93
2018-05-14T00:04:45.022Z,21.88
2018-05-14T00:07:11.716Z,21.80
2018-05-14T00:09:38.500Z,21.83
2018-05-14T00:12:05.203Z,21.87
2018-05-14T00:14:31.865Z,21.87
2018-05-14T00:16:58.528Z,21.83
2018-05-14T00:19:25.348Z,21.83
2018-05-14T00:21:52.066Z,21.87
2018-05-14T00:24:18.704Z,21.90
2018-05-14T00:26:45.384Z,21.83
2018-05-14T00:29:12.060Z,21.79
2018-05-14T00:31:38.734Z,21.78
2018-05-14T00:34:05.436Z,21.81
2018-05-14T00:36:32.072Z,21.86
2018-05-14T00:38:58.812Z,21.86
2018-05-14T00:41:25.511Z,21.69
2018-05-14T00:43:52.146Z,21.85
2018-05-14T00:46:18.815Z,21.80
2018-05-14T00:48:45.563Z,21.70
2018-05-14T00:51:12.188Z,21.79
2018-05-14T00:53:38.863Z,21.77
2018-05-14T00:56:05.541Z,21.79
2018-05-14T00:58:32.251Z,21.80
2018-05-14T01:00:58.993Z,21.74
2018-05-14T01:03:25.630Z,21.74
2018-05-14T01:05:52.338Z,21.78
2018-05-14T01:08:19.090Z,21.73
2018-05-14T01:10:45.761Z,21.71
2018-05-14T01:13:12.424Z,21.71
2018-05-14T01:15:39.143Z,21.68
2018-05-14T01:18:05.837Z,21.71
2018-05-14T01:20:32.524Z,21.71
2018-05-14T01:22:59.210Z,21.66
2018-05-14T01:25:25.844Z,21.70
2018-05-14T01:27:52.594Z,21.71
2018-05-14T01:30:19.225Z,21.72
2018-05-14T01:32:45.965Z,21.71
2018-05-14T01:35:12.592Z,21.54
2018-05-14T01:37:42.006Z,21.70
2018-05-14T01:40:08.716Z,21.74
2018-05-14T01:42:35.377Z,21.68
2018-05-14T01:45:02.043Z,21.64
2018-05-14T01:47:28.720Z,21.61
2018-05-14T01:49:55.379Z,21.60
2018-05-14T01:52:22.050Z,21.69
2018-05-14T01:54:48.742Z,21.59
2018-05-14T01:57:15.481Z,21.60
2018-05-14T01:59:42.184Z,21.51
2018-05-14T02:02:08.817Z,21.47
2018-05-14T02:04:35.523Z,21.53
2018-05-14T02:07:02.194Z,21.59
2018-05-14T02:09:28.879Z,21.54
2018-05-14T02:11:55.625Z,21.67
2018-05-14T02:14:22.284Z,21.53
2018-05-14T02:16:48.927Z,21.60
2018-05-14T02:19:15.588Z,21.50
2018-05-14T02:21:42.303Z,21.58
2018-05-14T02:24:08.981Z,21.64
2018-05-14T02:26:35.726Z,21.56
2018-05-14T02:29:02.362Z,21.58
2018-05-14T02:31:29.077Z,21.57
2018-05-14T02:33:55.743Z,21.59
2018-05-14T02:36:22.494Z,21.57
2018-05-14T02:38:49.131Z,21.53
2018-05-14T02:41:15.848Z,21.54
2018-05-14T02:43:42.531Z,21.41
2018-05-14T02:46:09.206Z,21.46
2018-05-14T02:48:35.933Z,21.46
2018-05-14T02:51:02.572Z,21.50
2018-05-14T02:53:29.271Z,21.51
2018-05-14T02:55:55.968Z,21.53
2018-05-14T02:58:22.673Z,21.43
2018-05-14T03:00:49.382Z,21.41
2018-05-14T03:03:16.003Z,21.42
2018-05-14T03:05:42.701Z,21.41
2018-05-14T03:08:09.404Z,21.43
2018-05-14T03:10:36.117Z,21.53
2018-05-14T03:13:02.822Z,21.51
2018-05-14T03:15:29.485Z,21.45
2018-05-14T03:17:56.192Z,21.41
2018-05-14T03:20:22.832Z,21.27
2018-05-14T03:22:49.572Z,21.19
2018-05-14T03:25:16.203Z,21.22
2018-05-14T03:27:42.930Z,21.19
2018-05-14T03:30:09.633Z,21.31
2018-05-14T03:32:36.329Z,21.31
2018-05-14T03:35:02.992Z,21.44
2018-05-14T03:37:29.693Z,21.48
2018-05-14T03:39:56.355Z,21.38
2018-05-14T03:42:23.078Z,21.38
2018-05-14T03:44:49.713Z,21.43
2018-05-14T03:47:16.371Z,21.42
2018-05-14T03:49:43.117Z,21.36
2018-05-14T03:52:09.790Z,21.43
2018-05-14T03:54:36.521Z,21.33
2018-05-14T03:57:03.151Z,21.40
2018-05-14T03:59:29.940Z,21.40
2018-05-14T04:01:56.572Z,21.47
2018-05-14T04:04:23.286Z,21.36
2018-05-14T04:06:49.991Z,21.41
2018-05-14T04:09:16.657Z,21.36
2018-05-14T04:11:43.415Z,21.38
2018-05-14T04:14:10.038Z,21.38
2018-05-14T04:16:36.763Z,21.44
2018-05-14T04:19:03.376Z,21.45
2018-05-14T04:21:30.086Z,21.72
2018-05-14T04:23:56.760Z,21.53
2018-05-14T04:26:23.385Z,21.44
2018-05-14T04:28:50.061Z,21.56
2018-05-14T04:31:16.765Z,21.45
2018-05-14T04:33:43.412Z,21.44
2018-05-14T04:36:10.157Z,21.57
2018-05-14T04:38:36.816Z,21.54
2018-05-14T04:41:03.457Z,21.47
2018-05-14T04:43:30.125Z,21.59
2018-05-14T04:45:56.836Z,21.66
2018-05-14T04:48:23.521Z,21.63
2018-05-14T04:50:50.198Z,21.60
2018-05-14T04:53:16.838Z,21.59
2018-05-14T04:55:43.517Z,21.60
2018-05-14T04:58:10.156Z,21.63
2018-05-14T05:00:37.156Z,21.65
2018-05-14T05:03:03.743Z,21.63
2018-05-14T05:05:30.349Z,21.66
2018-05-14T05:07:57.034Z,21.73
2018-05-14T05:10:23.692Z,21.72
2018-05-14T05:12:50.317Z,21.75
2018-05-14T05:15:16.997Z,21.86
2018-05-14T05:17:43.661Z,21.78
2018-05-14T05:20:10.311Z,21.78
2018-05-14T05:22:36.992Z,21.80
2018-05-14T05:25:03.676Z,21.92
2018-05-14T05:27:30.286Z,21.90
2018-05-14T05:29:56.960Z,22.01
2018-05-14T05:32:23.564Z,21.93
2018-05-14T05:34:50.188Z,21.87
2018-05-14T05:37:16.871Z,21.94
2018-05-14T05:39:43.465Z,21.89
2018-05-14T05:42:10.135Z,21.89
2018-05-14T05:44:36.758Z,21.92
2018-05-14T05:47:03.433Z,21.88
2018-05-14T05:49:30.039Z,21.90
2018-05-14T05:51:56.735Z,21.96
2018-05-14T05:54:23.338Z,22.06
2018-05-14T05:56:50.046Z,22.02
2018-05-14T05:59:18.588Z,22.05
2018-05-14T06:01:45.238Z,22.15
2018-05-14T06:04:11.875Z,22.20
2018-05-14T06:06:38.500Z,22.24
2018-05-14T06:09:05.146Z,22.30
2018-05-14T06:11:31.855Z,22.39
2018-05-14T06:13:58.456Z,22.47
2018-05-14T06:16:25.130Z,22.54
2018-05-14T06:18:51.757Z,22.59
2018-05-14T06:21:18.440Z,22.57
2018-05-14T06:23:45.127Z,22.68
2018-05-14T06:26:11.924Z,22.74
2018-05-14T06:28:38.761Z,22.86
2018-05-14T06:31:05.435Z,22.87
2018-05-14T06:33:32.209Z,22.94
2018-05-14T06:35:58.810Z,23.01
2018-05-14T06:38:26.334Z,23.04
2018-05-14T06:40:53.094Z,23.11
2018-05-14T06:43:19.773Z,23.03
2018-05-14T06:45:46.416Z,23.06
2018-05-14T06:48:13.037Z,23.16
2018-05-14T06:50:39.753Z,23.24
2018-05-14T06:53:06.384Z,23.31
2018-05-14T06:55:33.088Z,23.39
2018-05-14T06:57:59.817Z,23.38
2018-05-14T07:00:26.489Z,23.43
2018-05-14T07:02:53.102Z,23.45
2018-05-14T07:05:19.751Z,23.70
2018-05-14T07:07:46.878Z,23.68
2018-05-14T07:10:13.579Z,23.72
2018-05-14T07:12:40.224Z,23.83
2018-05-14T07:15:06.840Z,23.89
2018-05-14T07:17:33.487Z,23.79
2018-05-14T07:20:00.133Z,23.85
2018-05-14T07:22:26.805Z,23.90
2018-05-14T07:24:53.462Z,24.03
2018-05-14T07:27:20.076Z,24.02
2018-05-14T07:29:47.362Z,24.00
2018-05-14T07:32:13.999Z,24.13
2018-05-14T07:34:40.674Z,24.16
2018-05-14T07:37:07.316Z,24.26
2018-05-14T07:39:36.952Z,24.14
2018-05-14T07:42:03.707Z,24.24
2018-05-14T07:44:30.355Z,24.12
2018-05-14T07:46:57.095Z,24.07
2018-05-14T07:49:23.743Z,23.89
2018-05-14T07:51:50.435Z,23.85
2018-05-14T07:54:17.094Z,23.81
2018-05-14T07:56:43.747Z,23.73
2018-05-14T07:59:10.391Z,23.71
2018-05-14T08:01:37.028Z,23.70
2018-05-14T08:04:03.789Z,23.82
2018-05-14T08:06:30.453Z,23.90
2018-05-14T08:08:57.137Z,23.99
2018-05-14T08:11:23.774Z,24.11
2018-05-14T08:13:50.484Z,24.21
2018-05-14T08:16:17.088Z,24.19
2018-05-14T08:18:43.754Z,24.32
2018-05-14T08:21:10.427Z,24.19
2018-05-14T08:23:37.142Z,24.10
2018-05-14T08:26:03.746Z,24.05
2018-05-14T08:28:30.451Z,23.91
2018-05-14T08:30:57.242Z,23.82
2018-05-14T08:33:23.730Z,23.84
2018-05-14T08:35:50.412Z,23.77
2018-05-14T08:38:17.074Z,23.88
2018-05-14T08:40:43.781Z,23.96
2018-05-14T08:43:10.424Z,24.08
2018-05-14T08:45:37.055Z,24.15
2018-05-14T08:48:03.720Z,24.23
2018-05-14T08:50:30.345Z,24.18
2018-05-14T08:52:57.017Z,24.30
2018-05-14T08:55:23.701Z,24.33
2018-05-14T08:57:50.293Z,24.20
2018-05-14T09:00:16.927Z,24.10
2018-05-14T09:02:43.614Z,23.99
2018-05-14T09:05:10.383Z,23.92
2018-05-14T09:07:36.937Z,23.97
2018-05-14T09:10:03.611Z,24.05
2018-05-14T09:12:30.216Z,24.17
2018-05-14T09:14:56.846Z,24.26
2018-05-14T09:17:23.494Z,24.22
2018-05-14T09:19:50.179Z,24.38
2018-05-14T09:22:16.853Z,24.25
2018-05-14T09:24:43.483Z,24.20
2018-05-14T09:27:10.177Z,24.00
2018-05-14T09:29:36.813Z,23.86
2018-05-14T09:32:03.552Z,23.98
2018-05-14T09:34:30.263Z,24.12
2018-05-14T09:36:56.946Z,24.19
2018-05-14T09:39:23.580Z,24.24
2018-05-14T09:41:50.214Z,24.24
2018-05-14T09:44:16.888Z,24.28
2018-05-14T09:46:43.524Z,24.39
2018-05-14T09:49:10.200Z,24.47
2018-05-14T09:51:36.865Z,24.16
2018-05-14T09:54:03.535Z,23.97
2018-05-14T09:56:30.175Z,23.99
2018-05-14T09:58:56.810Z,23.95
2018-05-14T10:01:23.496Z,23.91
2018-05-14T10:03:50.136Z,23.97
2018-05-14T10:06:16.831Z,24.11
2018-05-14T10:08:43.430Z,24.21
2018-05-14T10:11:10.231Z,24.36
2018-05-14T10:13:36.877Z,24.37
2018-05-14T10:16:03.524Z,24.45
2018-05-14T10:18:30.197Z,24.50
2018-05-14T10:20:56.834Z,24.37
2018-05-14T10:23:23.495Z,24.22
2018-05-14T10:25:50.133Z,24.11
2018-05-14T10:28:16.847Z,24.12
2018-05-14T10:30:43.460Z,23.95
2018-05-14T10:33:10.132Z,24.15
2018-05-14T10:35:36.750Z,24.34
2018-05-14T10:38:03.409Z,24.20
2018-05-14T10:40:30.091Z,24.18
2018-05-14T10:42:56.749Z,24.18
2018-05-14T10:45:23.453Z,23.83
2018-05-14T10:47:50.065Z,23.71
2018-05-14T10:50:16.735Z,23.79
2018-05-14T10:52:43.382Z,24.05
2018-05-14T10:55:10.056Z,24.21
2018-05-14T10:57:36.759Z,24.39
2018-05-14T11:00:03.404Z,24.40
2018-05-14T11:02:30.140Z,24.50
2018-05-14T11:04:56.780Z,24.63
2018-05-14T11:07:23.479Z,24.29
2018-05-14T11:09:50.124Z,24.38
2018-05-14T11:12:16.728Z,24.14
2018-05-14T11:14:43.455Z,24.16
2018-05-14T11:17:10.157Z,24.27
2018-05-14T11:19:36.804Z,23.92
2018-05-14T11:22:03.454Z,23.86
2018-05-14T11:24:30.174Z,23.75
2018-05-14T11:26:56.732Z,23.91
2018-05-14T11:29:23.427Z,23.90
2018-05-14T11:31:50.062Z,24.07
2018-05-14T11:34:16.781Z,24.08
2018-05-14T11:36:43.424Z,24.20
2018-05-14T11:39:10.038Z,24.19
2018-05-14T11:41:36.734Z,24.23
2018-05-14T11:44:03.585Z,24.35
2018-05-14T11:46:30.294Z,24.45
2018-05-14T11:48:56.946Z,24.38
2018-05-14T11:51:23.624Z,24.08
2018-05-14T11:53:50.293Z,23.85
2018-05-14T11:56:16.933Z,23.92
2018-05-14T11:58:43.597Z,23.91
2018-05-14T12:01:10.258Z,24.03
2018-05-14T12:03:36.945Z,23.92
2018-05-14T12:06:03.546Z,24.01
2018-05-14T12:08:30.279Z,24.17
2018-05-14T12:10:57.102Z,24.23
2018-05-14T12:13:23.783Z,24.30
2018-05-14T12:15:50.432Z,24.17
2018-05-14T12:18:17.099Z,24.30
2018-05-14T12:20:44.908Z,24.36
2018-05-14T12:23:12.698Z,24.45
2018-05-14T12:25:39.553Z,24.56
2018-05-14T12:28:06.179Z,24.51
2018-05-14T12:30:32.962Z,24.11
2018-05-14T12:32:59.843Z,24.21
2018-05-14T12:35:26.481Z,24.27
2018-05-14T12:37:53.167Z,24.39
2018-05-14T12:40:19.769Z,24.49
2018-05-14T12:42:46.402Z,24.42
2018-05-14T12:45:13.115Z,24.23
2018-05-14T12:47:39.781Z,24.12
2018-05-14T12:50:06.427Z,24.22
2018-05-14T12:52:33.099Z,24.27
2018-05-14T12:54:59.730Z,24.38
2018-05-14T12:57:26.382Z,24.42
2018-05-14T12:59:53.006Z,24.38
2018-05-14T13:02:19.673Z,24.12
2018-05-14T13:04:46.349Z,24.19
2018-05-14T13:07:12.986Z,24.31
2018-05-14T13:09:39.658Z,24.34
2018-05-14T13:12:06.333Z,24.46
2018-05-14T13:14:32.982Z,24.28
2018-05-14T13:16:59.685Z,24.10
2018-05-14T13:19:26.378Z,23.86
2018-05-14T13:21:52.978Z,23.97
2018-05-14T13:24:19.639Z,24.12
2018-05-14T13:26:46.277Z,24.13
2018-05-14T13:29:12.957Z,24.23
2018-05-14T13:31:39.632Z,24.25
2018-05-14T13:34:06.246Z,24.36
2018-05-14T13:36:32.944Z,24.51
2018-05-14T13:39:00.028Z,24.45
2018-05-14T13:41:27.091Z,24.49
2018-05-14T13:43:54.847Z,24.53
2018-05-14T13:46:21.518Z,24.54
2018-05-14T13:48:48.207Z,24.65
2018-05-14T13:51:14.859Z,24.65
2018-05-14T13:53:41.503Z,24.65
2018-05-14T13:56:08.344Z,24.71
2018-05-14T13:58:34.983Z,24.75
2018-05-14T14:01:01.715Z,24.28
2018-05-14T14:03:28.412Z,24.18
2018-05-14T14:05:55.033Z,24.21
2018-05-14T14:08:21.723Z,24.33
2018-05-14T14:10:48.379Z,24.40
2018-05-14T14:13:15.097Z,24.47
2018-05-14T14:15:41.658Z,24.52
2018-05-14T14:18:08.363Z,24.54
2018-05-14T14:20:34.994Z,24.49
2018-05-14T14:23:01.671Z,24.51
2018-05-14T14:25:28.302Z,24.52
2018-05-14T14:27:54.937Z,24.57
2018-05-14T14:30:21.599Z,24.54
2018-05-14T14:32:48.284Z,24.49
2018-05-14T14:35:14.917Z,24.49
2018-05-14T14:37:41.601Z,24.48
2018-05-14T14:40:09.265Z,24.52
2018-05-14T14:42:35.865Z,24.58
2018-05-14T14:45:02.521Z,24.60
2018-05-14T14:47:29.196Z,24.54
2018-05-14T14:49:55.836Z,24.56
2018-05-14T14:52:22.492Z,24.53
2018-05-14T14:54:49.162Z,24.49
2018-05-14T14:57:15.792Z,24.42
2018-05-14T14:59:42.476Z,24.41
2018-05-14T15:02:09.229Z,24.43
2018-05-14T15:04:35.848Z,24.42
2018-05-14T15:07:02.529Z,24.36
2018-05-14T15:09:29.135Z,24.37
2018-05-14T15:11:55.778Z,24.38
2018-05-14T15:14:22.423Z,24.41
2018-05-14T15:16:49.074Z,24.42
2018-05-14T15:19:15.710Z,24.34
2018-05-14T15:21:42.372Z,24.40
2018-05-14T15:24:09.012Z,24.43
2018-05-14T15:26:35.660Z,24.41
2018-05-14T15:29:02.303Z,24.42
2018-05-14T15:31:28.986Z,24.44
2018-05-14T15:33:55.682Z,24.44
2018-05-14T15:36:22.319Z,24.44
2018-05-14T15:38:49.005Z,24.30
2018-05-14T15:41:15.660Z,24.29
2018-05-14T15:43:42.256Z,24.34
2018-05-14T15:46:08.897Z,24.26
2018-05-14T15:48:35.531Z,24.27
2018-05-14T15:51:02.218Z,24.22
2018-05-14T15:53:28.814Z,24.15
2018-05-14T15:55:55.494Z,24.19
2018-05-14T15:58:22.132Z,24.19
2018-05-14T16:00:48.770Z,24.18
2018-05-14T16:03:15.483Z,24.17
2018-05-14T16:05:42.164Z,24.15
2018-05-14T16:08:08.878Z,24.17
2018-05-14T16:10:35.460Z,24.18
2018-05-14T16:13:02.153Z,24.12
2018-05-14T16:15:28.790Z,24.07
2018-05-14T16:17:55.430Z,24.09
2018-05-14T16:20:22.110Z,24.12
2018-05-14T16:22:48.787Z,24.07
2018-05-14T16:25:15.392Z,24.08
2018-05-14T16:27:42.029Z,24.10
2018-05-14T16:30:08.691Z,24.13
2018-05-14T16:32:35.416Z,24.06
2018-05-14T16:35:02.069Z,24.06
2018-05-14T16:37:28.764Z,24.04
2018-05-14T16:39:55.523Z,24.03
2018-05-14T16:42:22.166Z,24.06
2018-05-14T16:44:48.818Z,24.04
2018-05-14T16:47:15.495Z,24.00
2018-05-14T16:49:42.140Z,24.01
2018-05-14T16:52:08.833Z,24.00
2018-05-14T16:54:35.474Z,24.02
2018-05-14T16:57:02.106Z,24.03
2018-05-14T16:59:28.820Z,24.00
2018-05-14T17:01:55.457Z,23.98
2018-05-14T17:04:22.137Z,23.98
2018-05-14T17:06:48.770Z,23.94
2018-05-14T17:09:15.461Z,23.96
2018-05-14T17:11:44.239Z,23.93
2018-05-14T17:14:10.881Z,23.96
2018-05-14T17:16:37.532Z,23.97
2018-05-14T17:19:04.168Z,23.95
2018-05-14T17:21:30.849Z,23.96
2018-05-14T17:23:57.485Z,23.94
2018-05-14T17:26:24.141Z,23.97
2018-05-14T17:28:50.837Z,23.93
2018-05-14T17:31:17.465Z,23.89
2018-05-14T17:33:44.098Z,23.85
2018-05-14T17:36:10.787Z,23.82
2018-05-14T17:38:37.424Z,23.82
2018-05-14T17:41:04.102Z,23.85
2018-05-14T17:43:30.737Z,23.78
2018-05-14T17:45:57.487Z,23.77
2018-05-14T17:48:24.166Z,23.73
2018-05-14T17:50:50.793Z,23.72
2018-05-14T17:53:17.422Z,23.73
2018-05-14T17:55:44.119Z,23.68
2018-05-14T17:58:10.835Z,23.66
2018-05-14T18:00:37.384Z,23.66
2018-05-14T18:03:04.022Z,23.65
2018-05-14T18:05:31.112Z,23.63
2018-05-14T18:07:57.757Z,23.62
2018-05-14T18:10:24.397Z,23.62
2018-05-14T18:12:51.038Z,23.62
2018-05-14T18:15:19.643Z,23.61
2018-05-14T18:17:44.375Z,23.59
2018-05-14T18:20:10.990Z,23.58
2018-05-14T18:22:37.626Z,23.56
2018-05-14T18:25:05.716Z,23.57
2018-05-14T18:27:30.951Z,23.54
2018-05-14T18:29:57.585Z,23.53
2018-05-14T18:32:24.217Z,23.53
2018-05-14T18:34:50.858Z,23.53
2018-05-14T18:37:17.504Z,23.54
2018-05-14T18:39:44.184Z,23.53
2018-05-14T18:42:10.782Z,23.51
2018-05-14T18:44:37.515Z,23.53
2018-05-14T18:47:04.144Z,23.54
2018-05-14T18:49:30.781Z,23.50
2018-05-14T18:51:57.445Z,23.50
2018-05-14T18:54:24.061Z,23.49
2018-05-14T18:56:50.702Z,23.47
2018-05-14T18:59:17.347Z,23.48
2018-05-14T19:01:44.013Z,23.47
2018-05-14T19:04:10.644Z,23.46
2018-05-14T19:06:37.334Z,23.44
2018-05-14T19:09:03.975Z,23.44
2018-05-14T19:11:30.625Z,23.44
2018-05-14T19:13:57.258Z,23.41
2018-05-14T19:16:23.885Z,23.41
2018-05-14T19:18:50.526Z,23.42
2018-05-14T19:21:17.177Z,23.40
2018-05-14T19:23:43.810Z,23.42
2018-05-14T19:26:10.454Z,23.42
2018-05-14T19:28:37.091Z,23.39
2018-05-14T19:31:03.726Z,23.38
2018-05-14T19:33:30.365Z,23.38
2018-05-14T19:35:57.080Z,23.39
2018-05-14T19:38:23.653Z,23.36
2018-05-14T19:40:50.334Z,23.36
2018-05-14T19:43:16.967Z,23.35
2018-05-14T19:45:43.641Z,23.36
2018-05-14T19:48:10.275Z,23.34
2018-05-14T19:50:36.954Z,23.34
2018-05-14T19:53:03.579Z,23.30
2018-05-14T19:55:30.213Z,23.30
2018-05-14T19:57:56.861Z,23.31
2018-05-14T20:00:23.493Z,23.30
2018-05-14T20:02:50.179Z,23.28
2018-05-14T20:05:16.809Z,23.28
2018-05-14T20:07:43.494Z,23.26
2018-05-14T20:10:10.126Z,23.25
2018-05-14T20:12:36.762Z,23.27
2018-05-14T20:15:03.414Z,23.25
2018-05-14T20:17:30.092Z,23.23
2018-05-14T20:19:56.730Z,23.20
2018-05-14T20:22:23.366Z,23.21
2018-05-14T20:24:50.052Z,23.18
2018-05-14T20:27:16.686Z,23.17
2018-05-14T20:29:43.369Z,23.18
2018-05-14T20:32:10.006Z,23.18
2018-05-14T20:34:36.668Z,23.17
2018-05-14T20:37:03.346Z,23.14
2018-05-14T20:39:29.976Z,23.17
2018-05-14T20:41:56.708Z,23.17
2018-05-14T20:44:23.343Z,23.12
2018-05-14T20:46:50.084Z,23.11
2018-05-14T20:49:16.758Z,23.13
2018-05-14T20:51:43.390Z,23.11
2018-05-14T20:54:10.028Z,23.12
2018-05-14T20:56:36.696Z,23.09
2018-05-14T20:59:03.337Z,23.09
2018-05-14T21:01:31.276Z,23.08
2018-05-14T21:03:56.614Z,23.08
2018-05-14T21:06:23.257Z,23.07
2018-05-14T21:08:50.026Z,23.07
2018-05-14T21:11:16.663Z,23.05
2018-05-14T21:13:43.303Z,23.07
2018-05-14T21:16:09.942Z,23.03
2018-05-14T21:18:36.589Z,23.03
2018-05-14T21:21:03.277Z,23.05
2018-05-14T21:23:29.903Z,23.03
2018-05-14T21:25:56.543Z,23.01
2018-05-14T21:28:23.294Z,23.01
2018-05-14T21:30:49.921Z,23.02
2018-05-14T21:33:16.567Z,22.99
2018-05-14T21:35:43.230Z,22.96
2018-05-14T21:38:09.912Z,22.96
2018-05-14T21:40:36.547Z,22.93
2018-05-14T21:43:03.227Z,22.92
2018-05-14T21:45:29.910Z,22.92
2018-05-14T21:47:56.542Z,22.91
2018-05-14T21:50:23.190Z,22.91
2018-05-14T21:52:49.822Z,22.90
2018-05-14T21:55:16.498Z,22.89
2018-05-14T21:57:43.135Z,22.89
2018-05-14T22:00:09.783Z,22.89
2018-05-14T22:02:36.414Z,22.86
2018-05-14T22:05:03.058Z,22.87
2018-05-14T22:07:29.697Z,22.87
2018-05-14T22:09:56.411Z,22.87
2018-05-14T22:12:23.016Z,22.85
2018-05-14T22:14:49.658Z,22.83
2018-05-14T22:17:16.298Z,22.81
2018-05-14T22:19:42.990Z,22.81
2018-05-14T22:22:09.639Z,22.80
2018-05-14T22:24:36.321Z,22.80
2018-05-14T22:27:02.950Z,22.81
2018-05-14T22:29:29.620Z,22.78
2018-05-14T22:31:56.233Z,22.76
2018-05-14T22:34:22.915Z,22.78
2018-05-14T22:36:49.593Z,22.73
2018-05-14T22:39:16.237Z,22.74
2018-05-14T22:41:42.913Z,22.75
2018-05-14T22:44:09.558Z,22.75
2018-05-14T22:46:36.208Z,22.73
2018-05-14T22:49:02.886Z,22.71
2018-05-14T22:51:29.529Z,22.71
2018-05-14T22:53:56.173Z,22.69
2018-05-14T22:56:22.823Z,22.71
2018-05-14T22:58:49.458Z,22.70
2018-05-14T23:01:16.519Z,22.69
2018-05-14T23:03:43.125Z,22.65
2018-05-14T23:06:09.807Z,22.61
2018-05-14T23:08:36.443Z,22.65
2018-05-14T23:11:03.127Z,22.65
2018-05-14T23:13:29.892Z,22.64
2018-05-14T23:15:56.437Z,22.64
2018-05-14T23:18:23.075Z,22.62
2018-05-14T23:20:49.710Z,22.61
2018-05-14T23:23:16.399Z,22.61
2018-05-14T23:25:43.037Z,22.63
2018-05-14T23:28:09.709Z,22.61
2018-05-14T23:30:36.370Z,22.58
2018-05-14T23:33:03.006Z,22.59
2018-05-14T23:35:29.641Z,22.57
2018-05-14T23:37:56.318Z,22.57
2018-05-14T23:40:22.948Z,22.56
2018-05-14T23:42:49.592Z,22.57
2018-05-14T23:45:16.231Z,22.57
2018-05-14T23:47:42.873Z,22.56
2018-05-14T23:50:09.591Z,22.55
2018-05-14T23:52:36.278Z,22.57
2018-05-14T23:55:02.955Z,22.55
2018-05-14T23:57:29.565Z,22.53
2018-05-14T23:59:56.205Z,22.51
